Time;durP1;ratioP1;P1;durP2;ratioP2;P2;SDS_P1;SDS_P2;PMS_P1;PMS_P2;Temp;Humidity;BMP_temperature;BMP_pressure;BME280_temperature;BME280_humidity;BME280_pressure;Samples;Min_cycle;Max_cycle;Signal;HPM_P1;HPM_P2
2021/12/08 00:19:44;;;;;;;9.93;5.80;;;;;;;2.43;65.19;97491.53;5059657;28;21398;-67
2021/12/08 00:22:12;;;;;;;9.77;6.03;;;;;;;2.37;65.25;97481.69;5069623;28;20686;-67
2021/12/08 00:24:39;;;;;;;8.57;6.23;;;;;;;2.49;65.32;97489.00;5035633;28;20799;-67
2021/12/08 00:27:07;;;;;;;10.47;5.90;;;;;;;2.41;65.72;97506.66;5069992;28;20234;-67
2021/12/08 00:29:34;;;;;;;8.87;5.93;;;;;;;2.68;64.73;97492.16;5069061;28;20616;-67
2021/12/08 00:32:01;;;;;;;7.30;5.73;;;;;;;3.05;63.76;97498.41;5070115;28;20240;-67
2021/12/08 00:34:27;;;;;;;8.20;6.53;;;;;;;2.57;65.41;97485.50;5064682;28;20224;-67
2021/12/08 00:36:58;;;;;;;9.80;5.93;;;;;;;2.41;65.74;97504.84;5052239;28;20253;-67
2021/12/08 00:39:25;;;;;;;10.63;6.50;;;;;;;1.99;67.29;97503.44;5035352;28;20235;-67
2021/12/08 00:41:52;;;;;;;10.53;6.93;;;;;;;2.77;65.80;97503.44;5057370;28;20232;-66
2021/12/08 00:44:19;;;;;;;10.40;6.20;;;;;;;3.57;63.00;97488.88;5039569;28;20221;-67
2021/12/08 00:46:46;;;;;;;10.77;6.10;;;;;;;3.87;61.89;97479.09;5060959;28;20724;-67
2021/12/08 00:49:15;;;;;;;12.80;6.67;;;;;;;3.00;64.88;97501.59;5060335;28;20234;-67
2021/12/08 00:51:43;;;;;;;11.17;7.37;;;;;;;3.06;65.19;97513.22;5034080;28;20602;-68
2021/12/08 00:54:10;;;;;;;11.77;7.10;;;;;;;3.04;65.61;97507.34;5066252;28;20222;-67
2021/12/08 00:56:37;;;;;;;14.33;6.97;;;;;;;2.77;66.04;97525.31;5067408;28;20256;-67
2021/12/08 00:59:03;;;;;;;9.73;7.33;;;;;;;2.40;66.88;97513.72;5045261;28;20240;-67
2021/12/08 01:01:40;;;;;;;10.63;6.03;;;;;;;3.19;64.53;97520.53;5058107;28;20218;-67
2021/12/08 01:04:09;;;;;;;9.50;6.37;;;;;;;2.72;66.30;97529.50;5062542;28;20224;-67
2021/12/08 01:06:36;;;;;;;10.87;6.63;;;;;;;2.46;66.75;97534.09;5058973;28;20240;-67
2021/12/08 01:09:04;;;;;;;8.80;6.77;;;;;;;3.30;64.75;97538.53;5068128;28;20235;-67
2021/12/08 01:11:34;;;;;;;9.07;6.50;;;;;;;4.09;62.44;97531.94;5037873;28;20217;-67
2021/12/08 01:14:01;;;;;;;10.70;6.53;;;;;;;4.33;61.42;97525.50;5054538;28;20230;-67
2021/12/08 01:16:28;;;;;;;10.97;6.50;;;;;;;4.27;60.86;97518.34;5034136;28;20218;-67
2021/12/08 01:18:54;;;;;;;9.33;6.40;;;;;;;4.42;60.53;97516.47;5050356;28;20235;-67
2021/12/08 01:21:21;;;;;;;7.97;5.57;;;;;;;4.19;61.18;97508.69;5063912;28;20253;-67
2021/12/08 01:23:49;;;;;;;10.10;5.60;;;;;;;4.39;60.83;97502.84;5057156;28;20227;-68
2021/12/08 01:26:16;;;;;;;9.33;5.47;;;;;;;3.72;62.73;97500.22;5056201;28;20237;-67
2021/12/08 01:28:44;;;;;;;8.97;5.43;;;;;;;2.75;67.00;97508.88;5046930;28;20235;-67
2021/12/08 01:31:11;;;;;;;8.57;5.00;;;;;;;3.02;66.77;97507.50;5021949;28;20227;-67
2021/12/08 01:33:38;;;;;;;10.50;5.87;;;;;;;1.99;70.42;97510.50;5061535;28;20230;-68
2021/12/08 01:36:06;;;;;;;7.37;5.80;;;;;;;2.63;67.27;97479.53;5045197;28;20219;-67
2021/12/08 01:38:34;;;;;;;8.53;6.50;;;;;;;-0.30;77.37;97500.69;5051990;28;20223;-67
2021/12/08 01:41:01;;;;;;;10.77;7.40;;;;;;;1.45;73.76;97500.69;5049461;28;20408;-67
2021/12/08 01:43:40;;;;;;;8.00;6.90;;;;;;;0.94;75.17;97500.91;5050738;28;20225;-67
2021/12/08 01:46:10;;;;;;;10.10;6.10;;;;;;;1.34;74.24;97489.50;5068678;28;20301;-67
2021/12/08 01:48:42;;;;;;;10.27;6.23;;;;;;;1.92;71.48;97478.81;5051867;28;20241;-67
2021/12/08 01:51:15;;;;;;;9.27;6.50;;;;;;;3.25;66.99;97443.38;5049917;28;20674;-66
2021/12/08 01:53:45;;;;;;;9.00;5.83;;;;;;;2.22;69.82;97469.28;5064378;28;20227;-68
2021/12/08 01:56:13;;;;;;;8.53;5.73;;;;;;;1.79;67.95;97423.38;5055729;28;20223;-68
2021/12/08 01:58:40;;;;;;;10.07;5.03;;;;;;;-0.20;78.68;97478.81;5067098;28;20954;-67
2021/12/08 02:01:10;;;;;;;12.77;6.73;;;;;;;-0.39;79.12;97478.09;5050692;28;20248;-67
2021/12/08 02:03:38;;;;;;;10.20;5.77;;;;;;;-0.17;79.11;97479.31;5068144;28;20631;-68
2021/12/08 02:06:08;;;;;;;9.00;6.50;;;;;;;-0.19;79.41;97483.88;5049663;28;20215;-67
2021/12/08 02:08:37;;;;;;;9.13;7.10;;;;;;;1.64;75.50;97457.44;5067361;28;20754;-67
2021/12/08 02:11:05;;;;;;;9.20;6.30;;;;;;;1.96;72.17;97439.88;5034301;28;20226;-67
2021/12/08 02:13:38;;;;;;;7.47;6.07;;;;;;;1.32;76.35;97461.78;5048828;28;20228;-67
2021/12/08 02:16:10;;;;;;;11.17;7.40;;;;;;;0.52;78.35;97467.78;5068013;28;20222;-67
2021/12/08 02:18:37;;;;;;;9.47;7.03;;;;;;;3.09;69.52;97420.69;5067278;28;20234;-67
2021/12/08 02:21:19;;;;;;;8.97;6.60;;;;;;;3.38;67.25;97406.72;5067771;28;20231;-67
2021/12/08 02:23:46;;;;;;;9.07;5.57;;;;;;;3.45;67.28;97403.34;5048758;28;20226;-68
2021/12/08 02:26:13;;;;;;;8.07;5.67;;;;;;;3.55;65.96;97398.59;5050415;28;20252;-67
2021/12/08 02:28:40;;;;;;;7.37;6.50;;;;;;;2.83;67.37;97403.50;5066789;28;20231;-68
2021/12/08 02:31:08;;;;;;;8.87;5.40;;;;;;;0.97;74.86;97463.81;5067406;28;20223;-68
2021/12/08 02:49:50;;;;;;;13.63;7.97;;;;;;;3.34;67.32;97404.66;5051858;28;20232;-67
2021/12/08 02:52:17;;;;;;;10.50;7.10;;;;;;;3.65;66.08;97412.31;5062740;28;20603;-67
2021/12/08 02:54:48;;;;;;;10.10;7.40;;;;;;;3.66;65.44;97394.66;5033105;28;20227;-66
2021/12/08 02:57:16;;;;;;;8.33;6.50;;;;;;;3.03;67.24;97403.78;5067530;28;20219;-67
2021/12/08 02:59:45;;;;;;;9.23;6.83;;;;;;;3.76;66.05;97403.13;5067101;28;20737;-67
2021/12/08 03:02:14;;;;;;;10.00;6.47;;;;;;;4.01;64.92;97385.09;5060066;28;20227;-67
2021/12/08 03:04:41;;;;;;;9.40;6.93;;;;;;;4.35;63.19;97381.00;5057201;28;21084;-67
2021/12/08 03:07:08;;;;;;;8.60;7.20;;;;;;;4.40;63.31;97383.03;5067012;28;20234;-67
2021/12/08 03:09:35;;;;;;;9.90;7.00;;;;;;;4.14;63.93;97369.41;5060757;28;20224;-67
2021/12/08 03:12:04;;;;;;;11.17;7.07;;;;;;;3.73;64.76;97383.22;5060440;28;20232;-67
2021/12/08 03:14:31;;;;;;;8.23;6.63;;;;;;;3.68;65.84;97390.84;5048822;28;20227;-68
2021/12/08 03:17:03;;;;;;;10.63;6.70;;;;;;;3.66;65.94;97399.94;5066325;28;20215;-67
2021/12/08 03:19:30;;;;;;;8.43;7.07;;;;;;;4.13;64.33;97401.25;5057918;28;20235;-65
2021/12/08 03:21:58;;;;;;;9.90;6.90;;;;;;;3.84;65.32;97402.19;5025800;28;20229;-65
2021/12/08 03:29:48;;;;;;;11.47;7.23;;;;;;;3.31;66.53;97408.41;5049536;28;20231;-67
2021/12/08 03:32:24;;;;;;;9.80;6.73;;;;;;;3.91;64.88;97419.72;5049169;28;20234;-65
2021/12/08 03:34:52;;;;;;;10.73;7.80;;;;;;;4.19;64.17;97423.47;5032253;28;20721;-65
2021/12/08 03:37:23;;;;;;;11.60;7.00;;;;;;;3.96;64.92;97419.16;5045860;28;20222;-66
2021/12/08 03:39:51;;;;;;;9.40;7.10;;;;;;;3.50;66.69;97441.31;5056078;28;20260;-65
2021/12/08 03:42:21;;;;;;;9.97;6.97;;;;;;;2.97;67.48;97435.31;5050644;28;20271;-66
2021/12/08 03:44:50;;;;;;;15.07;7.87;;;;;;;3.32;67.51;97438.25;5038269;28;20238;-66
2021/12/08 03:47:25;;;;;;;12.07;7.33;;;;;;;3.65;66.14;97436.03;5041562;28;20243;-65
2021/12/08 03:49:54;;;;;;;11.20;8.10;;;;;;;4.13;64.42;97430.28;5040967;28;20738;-66
2021/12/08 03:52:21;;;;;;;13.97;8.50;;;;;;;4.02;64.47;97423.69;5048000;28;20225;-65
2021/12/08 03:54:48;;;;;;;12.47;8.20;;;;;;;4.53;63.16;97422.75;5070690;28;20230;-66
2021/12/08 03:57:15;;;;;;;10.40;8.10;;;;;;;4.79;62.34;97429.25;5071808;28;20227;-67
2021/12/08 03:59:42;;;;;;;16.10;9.10;;;;;;;4.43;63.20;97424.91;5021817;28;20238;-68
2021/12/08 04:02:09;;;;;;;11.10;8.03;;;;;;;3.18;67.03;97442.47;5070806;28;20226;-67
2021/12/08 04:04:49;;;;;;;13.10;8.23;;;;;;;3.50;66.94;97445.78;5069493;28;20236;-68
2021/12/08 04:07:18;;;;;;;12.03;8.17;;;;;;;2.82;68.99;97458.97;5059632;28;21599;-68
2021/12/08 04:09:48;;;;;;;12.17;8.83;;;;;;;2.25;69.77;97455.78;5065112;28;20224;-67
2021/12/08 04:12:18;;;;;;;13.77;8.87;;;;;;;3.41;67.39;97468.78;5032829;28;20219;-65
2021/12/08 04:14:56;;;;;;;12.97;9.53;;;;;;;3.72;66.48;97459.84;5060738;28;20223;-65
2021/12/08 04:17:35;;;;;;;13.17;10.10;;;;;;;3.65;66.83;97454.50;5069388;28;20228;-65
2021/12/08 04:20:14;;;;;;;14.77;8.27;;;;;;;3.65;66.51;97448.41;5068976;28;20560;-65
2021/12/08 04:22:44;;;;;;;10.67;8.57;;;;;;;2.48;70.39;97460.25;5042121;28;20223;-66
2021/12/08 04:25:16;;;;;;;12.33;8.87;;;;;;;1.93;71.89;97468.13;5054520;28;20305;-66
2021/12/08 04:27:45;;;;;;;11.93;9.13;;;;;;;0.69;76.62;97481.72;5034303;28;20225;-66
2021/12/08 04:30:23;;;;;;;13.50;11.20;;;;;;;0.05;81.07;97483.13;5052835;28;20226;-67
2021/12/08 04:32:50;;;;;;;12.17;9.00;;;;;;;0.79;79.85;97469.25;5055659;28;20253;-66
2021/12/08 04:35:19;;;;;;;11.87;8.67;;;;;;;0.49;81.94;97470.72;5057841;28;20231;-68
2021/12/08 04:37:50;;;;;;;9.23;7.43;;;;;;;0.04;82.56;97478.03;5053516;28;20212;-67
2021/12/08 04:40:34;;;;;;;16.67;10.67;;;;;;;-0.06;83.14;97477.38;5046051;28;20587;-67
2021/12/08 04:46:02;;;;;;;10.37;8.23;;;;;;;0.58;80.96;97457.44;5053098;28;20230;-67
2021/12/08 05:09:48;;;;;;;17.97;12.97;;;;;;;1.63;77.58;97421.63;5061212;28;20609;-67
2021/12/08 05:12:24;;;;;;;15.93;12.03;;;;;;;2.39;73.08;97393.69;5047355;28;20222;-67
2021/12/08 05:14:59;;;;;;;14.37;10.73;;;;;;;0.79;79.75;97450.88;5047825;28;20328;-67
2021/12/08 05:17:31;;;;;;;15.77;11.30;;;;;;;0.97;78.51;97432.31;5066624;28;20233;-67
2021/12/08 05:20:04;;;;;;;14.60;10.83;;;;;;;0.62;80.33;97443.03;5069132;28;20614;-68
2021/12/08 05:22:35;;;;;;;14.27;10.30;;;;;;;2.40;75.54;97397.16;5068535;28;20441;-67
2021/12/08 05:25:08;;;;;;;14.50;10.77;;;;;;;1.20;79.35;97435.88;5068827;28;20220;-67
2021/12/08 05:27:44;;;;;;;14.03;10.87;;;;;;;1.96;74.71;97403.06;5068487;28;20237;-67
2021/12/08 05:30:31;;;;;;;14.77;11.80;;;;;;;3.46;70.81;97383.91;5068902;28;20231;-67
2021/12/08 05:33:00;;;;;;;11.87;9.47;;;;;;;4.17;67.59;97363.75;5033219;28;20650;-65
2021/12/08 05:35:28;;;;;;;13.83;10.57;;;;;;;4.25;66.59;97370.75;5058198;28;20219;-65
2021/12/08 05:37:56;;;;;;;13.07;9.97;;;;;;;4.48;66.07;97377.63;5068565;28;20240;-65
2021/12/08 05:40:38;;;;;;;12.80;10.00;;;;;;;4.90;64.79;97374.06;5050017;28;20227;-65
2021/12/08 05:43:08;;;;;;;13.23;11.07;;;;;;;4.51;65.52;97372.78;5067857;28;20219;-65
2021/12/08 05:45:37;;;;;;;16.33;11.37;;;;;;;4.46;65.56;97369.09;5056119;28;20731;-67
2021/12/08 05:48:06;;;;;;;15.67;10.97;;;;;;;4.56;65.49;97382.78;5062430;28;20227;-67
2021/12/08 05:50:40;;;;;;;14.10;10.57;;;;;;;4.46;65.60;97388.38;5030119;28;20226;-66
2021/12/08 05:53:07;;;;;;;13.33;10.67;;;;;;;4.53;65.31;97394.53;5044817;28;20249;-68
2021/12/08 05:55:35;;;;;;;13.00;10.40;;;;;;;4.22;66.33;97402.78;5049593;28;20231;-67
2021/12/08 05:58:04;;;;;;;17.40;12.47;;;;;;;4.20;65.64;97407.44;5056455;28;20219;-66
2021/12/08 06:00:43;;;;;;;16.27;12.53;;;;;;;4.67;64.85;97402.53;5066323;28;20225;-67
2021/12/08 06:03:11;;;;;;;17.53;12.47;;;;;;;3.90;67.18;97422.56;5055304;28;20817;-67
2021/12/08 06:05:39;;;;;;;13.17;11.07;;;;;;;4.23;65.93;97435.25;5058534;28;20611;-71
2021/12/08 06:08:06;;;;;;;14.70;11.00;;;;;;;4.62;65.01;97429.53;5052575;28;20592;-70
2021/12/08 06:10:37;;;;;;;15.60;11.97;;;;;;;4.35;65.53;97412.66;5054439;28;20227;-71
2021/12/08 06:13:06;;;;;;;13.80;10.97;;;;;;;4.57;65.16;97409.97;5067226;28;20617;-70
2021/12/08 06:15:34;;;;;;;13.33;10.40;;;;;;;4.81;64.74;97398.19;5040034;28;20231;-67
2021/12/08 06:18:01;;;;;;;17.80;11.80;;;;;;;4.64;65.12;97387.09;5061840;28;20711;-67
2021/12/08 06:20:32;;;;;;;13.70;10.77;;;;;;;3.00;70.46;97408.59;5067191;28;20231;-68
2021/12/08 06:22:59;;;;;;;16.80;11.13;;;;;;;3.27;69.70;97416.84;5067585;28;20602;-67
2021/12/08 06:25:27;;;;;;;14.63;9.57;;;;;;;3.67;68.58;97434.03;5067727;28;20711;-68
2021/12/08 06:27:54;;;;;;;13.97;10.60;;;;;;;4.26;66.54;97421.69;5068284;28;20567;-67
2021/12/08 06:30:27;;;;;;;14.50;11.37;;;;;;;4.82;64.51;97413.03;5067707;28;20226;-67
2021/12/08 06:32:55;;;;;;;16.23;12.20;;;;;;;5.07;63.64;97403.69;5047895;28;20241;-67
2021/12/08 06:35:30;;;;;;;18.03;13.33;;;;;;;5.02;63.78;97394.69;5048108;28;20238;-67
2021/12/08 06:37:57;;;;;;;14.53;11.13;;;;;;;5.01;63.78;97404.47;5067610;28;20215;-67
2021/12/08 06:40:33;;;;;;;15.10;11.57;;;;;;;4.67;65.16;97426.31;5067053;28;20223;-68
2021/12/08 06:43:03;;;;;;;15.07;10.83;;;;;;;4.67;64.77;97436.88;5048935;28;20218;-67
2021/12/08 06:45:35;;;;;;;17.17;12.17;;;;;;;3.92;66.99;97454.81;5067783;28;20602;-68
2021/12/08 06:48:06;;;;;;;16.43;12.20;;;;;;;3.91;67.90;97458.44;5061842;28;20226;-67
2021/12/08 06:50:38;;;;;;;17.23;11.67;;;;;;;3.77;67.22;97452.22;5065192;28;20227;-68
2021/12/08 06:53:06;;;;;;;14.97;11.00;;;;;;;3.24;70.24;97463.66;5054225;28;20234;-67
2021/12/08 06:55:37;;;;;;;17.27;11.60;;;;;;;3.94;67.97;97458.09;5056898;28;20231;-67
2021/12/08 06:58:08;;;;;;;16.73;10.97;;;;;;;4.63;65.94;97440.91;5053317;28;20220;-68
2021/12/08 07:01:17;;;;;;;14.77;10.27;;;;;;;4.72;65.26;97432.66;5041473;28;20246;-67
2021/12/08 07:09:06;;;;;;;17.50;12.13;;;;;;;3.68;68.19;97454.13;5052141;28;20242;-67
2021/12/08 07:11:34;;;;;;;18.87;11.73;;;;;;;4.13;67.72;97452.22;5036422;28;20223;-67
2021/12/08 07:14:01;;;;;;;19.13;11.87;;;;;;;3.74;68.48;97452.56;5052860;28;20220;-68
2021/12/08 07:16:42;;;;;;;13.43;10.50;;;;;;;3.30;70.30;97448.94;5058561;28;20223;-67
2021/12/08 07:19:28;;;;;;;14.53;11.63;;;;;;;3.85;69.03;97435.47;5067849;28;20708;-67
2021/12/08 07:21:58;;;;;;;14.67;10.83;;;;;;;4.58;66.44;97423.00;5053727;28;20222;-68
2021/12/08 07:24:33;;;;;;;13.80;11.50;;;;;;;3.43;69.63;97446.50;5053912;28;20232;-68
2021/12/08 07:27:06;;;;;;;18.00;13.73;;;;;;;2.00;75.01;97476.16;5070853;28;20710;-67
2021/12/08 07:29:37;;;;;;;14.27;12.37;;;;;;;4.00;68.05;97433.63;5070986;28;20268;-67
2021/12/08 07:32:17;;;;;;;14.83;11.67;;;;;;;2.51;72.25;97441.44;5053779;28;20211;-67
2021/12/08 07:34:44;;;;;;;13.40;10.83;;;;;;;2.79;73.49;97460.13;5058375;28;20698;-65
2021/12/08 07:37:18;;;;;;;13.80;10.73;;;;;;;3.83;69.33;97429.53;5033231;28;20229;-67
2021/12/08 07:39:52;;;;;;;14.70;11.23;;;;;;;4.57;66.50;97425.81;5053045;28;20231;-68
2021/12/08 07:42:27;;;;;;;12.90;11.07;;;;;;;4.39;65.77;97421.00;5052484;28;20737;-68
2021/12/08 07:44:57;;;;;;;14.73;11.23;;;;;;;4.28;66.69;97423.16;5070945;28;20442;-67
2021/12/08 07:47:27;;;;;;;17.37;12.60;;;;;;;4.39;66.37;97428.94;5062479;28;20251;-68
2021/12/08 07:50:25;;;;;;;14.70;11.33;;;;;;;3.59;69.31;97442.88;5033450;28;20230;-68
2021/12/08 07:52:53;;;;;;;15.30;11.63;;;;;;;3.68;68.71;97430.41;5030307;28;20636;-67
2021/12/08 07:55:26;;;;;;;16.27;12.00;;;;;;;2.47;74.24;97463.84;5067579;28;20227;-68
2021/12/08 07:57:54;;;;;;;15.10;11.60;;;;;;;2.47;72.90;97456.78;5055200;28;20234;-67
2021/12/08 08:00:43;;;;;;;14.80;11.17;;;;;;;3.02;71.93;97475.91;5069819;28;20702;-68
2021/12/08 08:03:12;;;;;;;23.77;14.70;;;;;;;1.93;75.45;97493.59;5052507;28;20230;-67
2021/12/08 08:05:43;;;;;;;17.30;13.27;;;;;;;3.40;70.81;97473.22;5070295;28;20227;-68
2021/12/08 08:08:14;;;;;;;18.13;13.63;;;;;;;3.96;67.93;97440.25;5070856;28;20229;-67
2021/12/08 08:10:51;;;;;;;18.90;15.27;;;;;;;3.30;70.24;97445.50;5056768;28;20612;-68
2021/12/08 08:13:22;;;;;;;18.87;12.57;;;;;;;3.14;72.25;97465.75;5069777;28;20223;-67
2021/12/08 08:15:54;;;;;;;16.93;12.43;;;;;;;3.98;68.08;97438.25;5070221;28;20223;-67
2021/12/08 08:18:26;;;;;;;20.47;12.13;;;;;;;4.12;67.40;97440.03;5052396;28;20223;-68
2021/12/08 08:20:57;;;;;;;15.30;12.30;;;;;;;4.24;67.14;97453.53;5052561;28;20519;-67
2021/12/08 08:23:28;;;;;;;27.03;19.73;;;;;;;4.63;65.85;97456.75;5057958;28;20909;-67
2021/12/08 08:25:56;;;;;;;24.57;19.20;;;;;;;4.11;67.30;97463.97;5069945;28;20218;-67
2021/12/08 08:28:23;;;;;;;23.27;18.43;;;;;;;3.55;69.16;97472.41;5037301;28;20223;-67
2021/12/08 08:31:04;;;;;;;22.80;16.23;;;;;;;2.76;73.38;97488.63;5070610;28;20219;-67
2021/12/08 08:33:34;;;;;;;16.10;13.50;;;;;;;3.23;72.60;97498.09;5050191;28;20735;-68
2021/12/08 08:36:07;;;;;;;19.37;14.07;;;;;;;4.51;67.60;97453.81;5050323;28;20220;-68
2021/12/08 08:38:45;;;;;;;19.87;13.50;;;;;;;4.64;66.00;97439.91;5059715;28;20227;-67
2021/12/08 08:41:20;;;;;;;16.40;13.70;;;;;;;5.03;64.66;97436.78;5053355;28;20246;-68
2021/12/08 08:43:49;;;;;;;20.63;14.23;;;;;;;5.13;63.98;97428.53;5037324;28;20231;-67
2021/12/08 08:46:27;;;;;;;19.97;13.67;;;;;;;5.16;64.20;97425.50;5015181;28;20230;-68
2021/12/08 08:48:59;;;;;;;18.07;14.17;;;;;;;4.80;65.41;97423.78;5048840;28;21409;-67
2021/12/08 08:51:40;;;;;;;22.27;16.33;;;;;;;4.33;66.81;97443.69;5047819;28;20236;-67
2021/12/08 08:54:15;;;;;;;26.80;20.73;;;;;;;3.54;69.38;97462.88;5066320;28;20227;-67
2021/12/08 08:56:53;;;;;;;43.47;33.03;;;;;;;3.73;69.41;97477.31;5049177;28;20667;-68
2021/12/08 09:01:55;;;;;;;36.57;26.87;;;;;;;4.21;68.58;97497.97;5052386;28;20266;-69
2021/12/08 09:04:30;;;;;;;30.30;21.67;;;;;;;3.89;70.08;97508.75;5047986;28;20231;-72
2021/12/08 09:07:02;;;;;;;27.10;20.57;;;;;;;3.40;71.43;97518.03;5048439;28;20238;-69
2021/12/08 09:09:37;;;;;;;28.20;19.00;;;;;;;3.16;72.35;97534.06;5049890;28;20220;-69
2021/12/08 09:12:13;;;;;;;24.33;16.73;;;;;;;3.73;70.79;97522.16;5049417;28;20220;-69
2021/12/08 09:15:05;;;;;;;18.63;15.13;;;;;;;3.42;71.51;97542.41;5048031;28;20227;-70
2021/12/08 09:17:36;;;;;;;21.30;16.47;;;;;;;3.75;70.72;97530.69;5047833;28;21103;-72
2021/12/08 09:20:11;;;;;;;23.77;16.10;;;;;;;3.63;71.25;97538.25;5048670;28;20220;-69
2021/12/08 09:22:55;;;;;;;21.87;15.70;;;;;;;3.59;72.00;97527.25;5048478;28;20230;-69
2021/12/08 09:25:30;;;;;;;19.03;14.77;;;;;;;3.71;72.39;97526.75;5045300;28;20583;-72
2021/12/08 09:28:03;;;;;;;18.97;14.17;;;;;;;4.15;70.67;97510.09;5026875;28;20224;-70
2021/12/08 09:30:41;;;;;;;31.93;21.57;;;;;;;4.26;70.26;97500.88;5027105;28;20600;-69
2021/12/08 09:33:12;;;;;;;23.13;18.57;;;;;;;3.91;72.20;97509.41;5047780;28;20230;-72
2021/12/08 09:35:52;;;;;;;17.13;13.93;;;;;;;3.90;72.51;97494.56;5030080;28;20228;-71
2021/12/08 09:38:28;;;;;;;14.97;11.97;;;;;;;3.46;75.32;97505.16;5026732;28;20225;-69
2021/12/08 09:41:03;;;;;;;14.33;10.67;;;;;;;2.65;78.71;97522.28;5053183;28;20725;-69
2021/12/08 09:44:06;;;;;;;13.77;10.30;;;;;;;2.99;79.51;97518.41;5048691;28;20245;-72
2021/12/08 09:46:39;;;;;;;11.90;9.37;;;;;;;2.90;80.56;97518.63;5014857;28;20238;-69
2021/12/08 09:49:08;;;;;;;14.43;9.87;;;;;;;3.40;77.60;97498.78;5040175;28;20731;-69
2021/12/08 09:51:36;;;;;;;12.13;9.67;;;;;;;3.63;76.19;97492.59;5057003;28;20242;-72
2021/12/08 09:54:03;;;;;;;14.53;9.73;;;;;;;4.09;76.31;97487.88;5052770;28;20249;-71
2021/12/08 09:56:33;;;;;;;11.80;9.33;;;;;;;3.85;77.21;97488.22;5053018;28;20216;-71
2021/12/08 09:59:03;;;;;;;15.13;9.37;;;;;;;3.53;78.48;97498.97;5029755;28;20222;-71
2021/12/08 10:01:33;;;;;;;11.00;8.77;;;;;;;3.37;78.04;97489.44;5037626;28;20229;-71
2021/12/08 10:04:00;;;;;;;11.93;8.63;;;;;;;2.58;81.64;97509.97;5038104;28;20246;-72
2021/12/08 10:06:28;;;;;;;10.37;7.10;;;;;;;1.98;84.20;97507.06;5055072;28;20230;-70
2021/12/08 10:08:57;;;;;;;10.43;8.10;;;;;;;3.73;78.27;97472.06;5048948;28;20216;-71
2021/12/08 10:11:27;;;;;;;12.40;7.57;;;;;;;2.73;83.04;97510.03;5037369;28;20228;-70
2021/12/08 10:13:55;;;;;;;12.30;7.07;;;;;;;2.68;82.15;97503.50;5047573;28;20224;-70
2021/12/08 10:16:22;;;;;;;8.57;6.47;;;;;;;2.45;81.83;97500.88;5035577;28;20228;-70
2021/12/08 10:18:49;;;;;;;8.37;6.63;;;;;;;2.97;82.01;97499.31;5023494;28;20222;-70
2021/12/08 10:21:16;;;;;;;8.83;6.40;;;;;;;3.98;77.43;97457.53;5027321;28;20220;-70
2021/12/08 10:23:45;;;;;;;11.30;7.77;;;;;;;4.43;74.70;97438.91;5024715;28;20221;-70
2021/12/08 10:26:24;;;;;;;9.43;7.00;;;;;;;4.17;76.35;97450.84;5015530;28;20225;-70
2021/12/08 10:28:54;;;;;;;7.97;6.30;;;;;;;3.90;77.24;97443.66;5046559;28;20783;-70
2021/12/08 10:31:31;;;;;;;11.80;7.70;;;;;;;4.81;73.44;97417.50;5029539;28;20230;-70
2021/12/08 10:34:06;;;;;;;13.27;8.37;;;;;;;5.06;71.40;97412.63;5033534;28;20220;-73
2021/12/08 10:36:56;;;;;;;11.23;8.57;;;;;;;5.47;70.14;97411.00;5025022;28;20244;-72
2021/12/08 10:39:46;;;;;;;9.53;7.70;;;;;;;5.22;70.85;97414.13;5030084;28;20859;-70
2021/12/08 10:42:28;;;;;;;11.83;9.07;;;;;;;5.22;71.37;97414.13;5020501;28;20710;-69
2021/12/08 10:47:31;;;;;;;11.10;7.53;;;;;;;5.13;71.86;97431.16;5032053;28;20226;-72
2021/12/08 10:56:40;;;;;;;11.43;8.17;;;;;;;5.31;70.53;97430.66;5016186;28;20227;-72
2021/12/08 10:59:06;;;;;;;9.80;8.40;;;;;;;5.07;71.81;97424.00;5015288;28;20233;-70
2021/12/08 11:03:43;;;;;;;10.93;7.00;;;;;;;2.91;80.82;97473.69;5059983;28;21081;-70
2021/12/08 11:06:15;;;;;;;9.80;6.37;;;;;;;3.15;78.96;97471.81;5036156;28;20224;-69
2021/12/08 11:08:45;;;;;;;9.70;6.80;;;;;;;3.14;80.79;97483.38;5043394;28;20837;-70
2021/12/08 11:11:32;;;;;;;10.73;6.73;;;;;;;3.49;78.99;97467.88;5019804;28;21759;-70
2021/12/08 11:14:02;;;;;;;9.90;7.20;;;;;;;3.84;76.42;97458.38;5001394;28;20222;-70
2021/12/08 11:16:40;;;;;;;9.83;7.27;;;;;;;3.85;77.37;97460.03;5032148;28;20226;-70
2021/12/08 11:19:10;;;;;;;14.87;8.70;;;;;;;3.50;78.44;97458.97;5045123;28;20854;-70
2021/12/08 11:21:41;;;;;;;9.27;7.77;;;;;;;4.07;76.54;97454.78;5043430;28;20236;-70
2021/12/08 11:24:21;;;;;;;9.87;7.17;;;;;;;4.05;76.69;97452.34;5037283;28;20425;-70
2021/12/08 11:26:51;;;;;;;9.10;7.43;;;;;;;4.35;76.48;97452.25;5018063;28;20710;-69
2021/12/08 11:29:27;;;;;;;11.80;7.80;;;;;;;4.12;76.42;97449.78;5024012;28;20227;-70
2021/12/08 11:32:03;;;;;;;11.50;7.60;;;;;;;4.38;76.53;97453.69;5021727;28;20212;-70
2021/12/08 11:34:39;;;;;;;17.70;13.00;;;;;;;4.23;75.58;97446.66;5018858;28;20713;-70
2021/12/08 11:37:18;;;;;;;16.03;10.63;;;;;;;3.89;77.30;97460.47;5029660;28;20704;-70
2021/12/08 11:39:55;;;;;;;14.63;11.30;;;;;;;3.55;78.26;97472.41;5028770;28;20235;-70
2021/12/08 11:42:26;;;;;;;15.13;10.90;;;;;;;3.92;78.10;97466.19;5019854;28;20221;-70
2021/12/08 11:44:56;;;;;;;14.03;10.30;;;;;;;3.57;79.42;97470.41;5038495;28;20221;-70
2021/12/08 11:47:32;;;;;;;13.40;10.27;;;;;;;3.87;77.98;97463.28;5022943;28;20223;-70
2021/12/08 11:50:02;;;;;;;15.63;10.70;;;;;;;3.99;75.97;97453.06;5022733;28;20233;-70
2021/12/08 11:52:32;;;;;;;12.13;9.33;;;;;;;4.26;75.28;97440.97;5023234;28;20217;-70
2021/12/08 11:55:02;;;;;;;16.93;11.57;;;;;;;4.17;76.56;97444.75;5022284;28;20228;-70
2021/12/08 11:57:36;;;;;;;14.70;12.33;;;;;;;4.08;76.76;97446.69;5023273;28;20235;-70
2021/12/08 12:00:14;;;;;;;15.10;11.00;;;;;;;3.95;77.68;97450.00;5023108;28;20224;-70
2021/12/08 12:02:46;;;;;;;13.97;11.90;;;;;;;4.09;76.11;97444.88;5032529;28;21131;-70
2021/12/08 12:05:21;;;;;;;14.80;11.87;;;;;;;4.22;75.71;97439.72;5043005;28;20232;-70
2021/12/08 12:07:49;;;;;;;20.37;13.17;;;;;;;4.49;74.81;97427.59;5022459;28;20623;-70
2021/12/08 12:10:19;;;;;;;18.60;14.13;;;;;;;4.66;74.40;97422.06;5032377;28;20224;-70
2021/12/08 12:12:52;;;;;;;19.23;13.33;;;;;;;4.70;73.83;97434.69;5041521;28;20768;-70
2021/12/08 12:15:21;;;;;;;21.50;15.33;;;;;;;4.36;75.45;97435.38;5029485;28;20230;-70
2021/12/08 12:17:48;;;;;;;20.30;14.90;;;;;;;4.30;75.37;97438.81;5001907;28;20224;-70
2021/12/08 12:20:38;;;;;;;22.17;16.70;;;;;;;4.19;76.61;97439.28;5009546;28;20612;-70
2021/12/08 12:23:27;;;;;;;17.93;13.37;;;;;;;4.19;76.43;97445.38;5009328;28;20569;-70
2021/12/08 12:26:19;;;;;;;15.77;12.47;;;;;;;4.43;75.37;97430.97;5010113;28;20231;-70
2021/12/08 12:29:04;;;;;;;19.13;12.50;;;;;;;3.24;78.93;97439.13;5009066;28;20859;-70
2021/12/08 12:32:07;;;;;;;14.20;11.77;;;;;;;3.97;77.66;97437.44;5010297;28;20233;-70
2021/12/08 12:34:38;;;;;;;15.60;11.07;;;;;;;4.08;77.75;97446.69;5017836;28;20228;-70
2021/12/08 12:37:29;;;;;;;13.93;11.03;;;;;;;4.68;75.16;97433.25;5019568;28;20237;-70
2021/12/08 12:39:58;;;;;;;18.13;12.30;;;;;;;4.89;73.40;97421.84;5013849;28;20224;-70
2021/12/08 12:42:27;;;;;;;18.53;12.43;;;;;;;4.84;73.91;97425.03;5013058;28;20225;-70
2021/12/08 12:44:56;;;;;;;18.00;11.90;;;;;;;3.50;80.00;97466.88;5007411;28;20228;-70
2021/12/08 12:47:30;;;;;;;19.07;13.87;;;;;;;3.74;79.04;97456.06;5009102;28;20236;-70
2021/12/08 12:50:00;;;;;;;18.43;11.60;;;;;;;4.89;74.33;97424.47;5009291;28;20234;-70
2021/12/08 12:52:41;;;;;;;17.40;14.53;;;;;;;4.86;73.98;97419.56;5010457;28;20600;-70
2021/12/08 12:55:14;;;;;;;19.53;12.97;;;;;;;4.83;72.49;97407.53;5009544;28;20248;-70
2021/12/08 12:57:59;;;;;;;14.60;12.00;;;;;;;4.65;74.19;97418.59;5024448;28;20221;-70
2021/12/08 13:00:29;;;;;;;15.47;13.80;;;;;;;4.87;73.20;97414.09;5008854;28;20235;-70
2021/12/08 13:02:56;;;;;;;18.00;13.53;;;;;;;4.57;74.62;97405.53;5008493;28;20232;-71
2021/12/08 13:05:50;;;;;;;18.90;12.07;;;;;;;4.65;74.87;97409.84;5022649;28;20243;-71
2021/12/08 13:08:39;;;;;;;17.70;13.90;;;;;;;4.75;74.55;97399.75;5005091;28;20226;-71
2021/12/08 13:11:24;;;;;;;20.00;12.97;;;;;;;4.15;76.33;97413.28;5006680;28;20733;-71
2021/12/08 13:13:54;;;;;;;21.57;16.27;;;;;;;4.33;75.58;97415.47;5008603;28;20741;-70
2021/12/08 13:16:25;;;;;;;26.43;16.67;;;;;;;4.60;75.24;97414.88;5008715;28;20248;-71
2021/12/08 13:18:59;;;;;;;20.17;15.13;;;;;;;4.93;73.84;97398.50;5008559;28;20221;-70